Time;durP1;ratioP1;P1;durP2;ratioP2;P2;SDS_P1;SDS_P2;PMS_P1;PMS_P2;Temp;Humidity;BMP_temperature;BMP_pressure;BME280_temperature;BME280_humidity;BME280_pressure;Samples;Min_cycle;Max_cycle;Signal;HPM_P1;HPM_P2
2023/09/20 00:03:55;;;;;;;1011.30;928.80;;;;;;;17.34;100.00;100708.66;10497746;28;20366;-73
2023/09/20 00:08:56;;;;;;;843.53;787.63;;;;;;;17.22;100.00;100716.09;10481043;28;20033;-73
2023/09/20 00:14:00;;;;;;;849.20;793.55;;;;;;;17.10;100.00;100713.41;10498770;28;20036;-73
2023/09/20 00:19:01;;;;;;;866.53;808.55;;;;;;;16.93;100.00;100710.63;10498026;28;20121;-73
2023/09/20 00:24:04;;;;;;;845.25;789.22;;;;;;;16.93;100.00;100702.41;10498189;28;20044;-73
2023/09/20 00:29:05;;;;;;;843.17;786.75;;;;;;;16.95;100.00;100706.56;10498072;28;20364;-73
2023/09/20 00:34:06;;;;;;;955.75;881.80;;;;;;;17.11;100.00;100698.66;10497730;28;20024;-73
2023/09/20 00:39:09;;;;;;;862.42;804.90;;;;;;;17.17;100.00;100701.25;10497540;28;20443;-72
2023/09/20 00:44:10;;;;;;;879.50;820.50;;;;;;;17.14;100.00;100698.16;10496814;28;20032;-73
2023/09/20 00:49:10;;;;;;;838.17;782.97;;;;;;;17.11;100.00;100698.66;10497706;28;20036;-73
2023/09/20 00:54:11;;;;;;;865.05;807.28;;;;;;;17.03;100.00;100696.31;10496419;28;20048;-72
2023/09/20 00:59:13;;;;;;;853.08;796.22;;;;;;;17.14;100.00;100682.56;10479065;28;20430;-72
2023/09/20 01:04:13;;;;;;;848.83;792.65;;;;;;;17.31;100.00;100679.84;10478695;28;20197;-72
2023/09/20 01:09:14;;;;;;;850.08;794.28;;;;;;;17.42;100.00;100673.50;10496065;28;20102;-72
2023/09/20 01:14:14;;;;;;;844.20;788.60;;;;;;;17.51;100.00;100673.88;10498032;28;20047;-72
2023/09/20 01:19:15;;;;;;;886.42;827.03;;;;;;;17.52;100.00;100670.09;10496006;28;20056;-72
2023/09/20 01:24:17;;;;;;;844.30;788.47;;;;;;;17.57;100.00;100672.06;10497264;28;20404;-72
2023/09/20 01:29:17;;;;;;;904.35;843.40;;;;;;;17.55;100.00;100669.59;10478629;28;20098;-72
2023/09/20 01:34:18;;;;;;;865.97;808.10;;;;;;;17.54;100.00;100670.66;10494303;28;20506;-71
2023/09/20 01:39:18;;;;;;;843.85;788.40;;;;;;;17.56;100.00;100681.38;10497382;28;20036;-71
2023/09/20 01:44:22;;;;;;;859.83;802.35;;;;;;;17.57;100.00;100677.53;10496202;28;20036;-71
2023/09/20 01:49:22;;;;;;;853.08;796.78;;;;;;;17.54;100.00;100673.38;10494914;28;20410;-71
2023/09/20 01:54:23;;;;;;;888.50;827.92;;;;;;;17.57;100.00;100664.69;10478578;28;20032;-71
2023/09/20 01:59:23;;;;;;;876.25;816.75;;;;;;;17.46;100.00;100662.03;10478623;28;20055;-71
2023/09/20 02:04:24;;;;;;;871.80;813.53;;;;;;;17.44;100.00;100660.38;10477718;28;20081;-71
2023/09/20 02:09:25;;;;;;;877.47;817.72;;;;;;;17.41;100.00;100649.91;10496075;28;20064;-71
2023/09/20 02:14:25;;;;;;;954.33;876.67;;;;;;;17.50;100.00;100650.34;10476051;28;20032;-68
2023/09/20 02:19:26;;;;;;;830.17;775.67;;;;;;;17.38;100.00;100649.59;10494024;28;20057;-67
2023/09/20 02:24:26;;;;;;;1018.70;927.65;;;;;;;17.27;100.00;100636.81;10494211;28;20056;-68
2023/09/20 02:29:26;;;;;;;949.22;876.78;;;;;;;17.31;100.00;100633.31;10492623;28;20108;-67
2023/09/20 02:34:27;;;;;;;842.67;787.15;;;;;;;17.36;100.00;100627.13;10497343;28;20036;-68
2023/09/20 02:39:27;;;;;;;848.25;791.47;;;;;;;17.38;100.00;100619.47;10502354;28;20117;-67
2023/09/20 02:44:28;;;;;;;879.60;820.42;;;;;;;17.34;100.00;100616.41;10499578;28;20480;-69
2023/09/20 02:49:28;;;;;;;891.00;827.90;;;;;;;17.36;100.00;100602.50;10500692;28;20051;-67
2023/09/20 02:54:28;;;;;;;848.50;792.75;;;;;;;17.37;100.00;100615.91;10500718;28;20032;-68
2023/09/20 02:59:29;;;;;;;869.08;810.70;;;;;;;17.41;100.00;100600.63;10500606;28;20534;-67
2023/09/20 03:04:29;;;;;;;866.85;809.67;;;;;;;17.30;100.00;100593.38;10482892;28;20051;-66
2023/09/20 03:09:35;;;;;;;839.70;785.00;;;;;;;17.29;100.00;100605.38;10498879;28;20040;-67
2023/09/20 03:14:38;;;;;;;868.55;811.00;;;;;;;17.36;100.00;100586.88;10499937;28;20063;-68
2023/09/20 03:19:39;;;;;;;845.00;789.50;;;;;;;17.27;100.00;100573.88;10498416;28;20056;-68
2023/09/20 03:24:40;;;;;;;834.63;780.15;;;;;;;17.15;100.00;100576.69;10500159;28;20056;-67
2023/09/20 03:29:42;;;;;;;860.92;802.30;;;;;;;17.02;100.00;100574.28;10500652;28;20052;-67
2023/09/20 03:34:43;;;;;;;881.60;821.55;;;;;;;17.08;100.00;100570.56;10481260;28;20112;-67
2023/09/20 03:39:45;;;;;;;844.15;788.80;;;;;;;17.05;100.00;100563.69;10499997;28;20051;-68
2023/09/20 03:44:46;;;;;;;835.60;780.33;;;;;;;17.06;100.00;100548.09;10497435;28;20028;-67
2023/09/20 03:49:51;;;;;;;899.45;837.10;;;;;;;17.15;100.00;100557.53;10499000;28;20033;-67
2023/09/20 03:54:51;;;;;;;837.30;781.92;;;;;;;17.24;100.00;100550.56;10481173;28;20028;-68
2023/09/20 03:59:52;;;;;;;843.33;787.80;;;;;;;17.27;100.00;100558.28;10498001;28;20104;-68
2023/09/20 04:04:53;;;;;;;857.67;801.40;;;;;;;17.30;100.00;100541.38;10496418;28;20029;-68
2023/09/20 04:09:53;;;;;;;839.30;784.17;;;;;;;17.32;100.00;100536.44;10498693;28;20067;-67
2023/09/20 04:14:54;;;;;;;844.97;789.78;;;;;;;17.34;100.00;100530.75;10496415;28;20033;-67
2023/09/20 04:19:55;;;;;;;908.83;843.92;;;;;;;17.26;100.00;100536.63;10495667;28;20543;-67
2023/09/20 04:24:55;;;;;;;855.03;798.50;;;;;;;17.27;100.00;100527.34;10497320;28;20072;-68
2023/09/20 04:29:55;;;;;;;924.33;860.65;;;;;;;17.17;100.00;100517.09;10495841;28;20125;-67
2023/09/20 04:34:56;;;;;;;945.97;878.45;;;;;;;17.01;100.00;100507.00;10479112;28;20094;-67
2023/09/20 04:39:56;;;;;;;849.53;793.60;;;;;;;16.87;100.00;100511.94;10496370;28;20117;-69
2023/09/20 04:44:57;;;;;;;827.08;773.03;;;;;;;16.84;100.00;100507.81;10497547;28;20079;-68
2023/09/20 04:49:57;;;;;;;872.17;814.00;;;;;;;16.72;100.00;100507.03;10495452;28;20029;-68
2023/09/20 04:54:58;;;;;;;871.42;813.42;;;;;;;16.65;100.00;100520.03;10478489;28;20032;-67
2023/09/20 04:59:59;;;;;;;900.30;839.25;;;;;;;16.76;100.00;100510.16;10496685;28;20036;-67
2023/09/20 05:05:00;;;;;;;956.72;886.45;;;;;;;16.87;100.00;100504.56;10496364;28;20040;-68
2023/09/20 05:10:01;;;;;;;883.42;823.25;;;;;;;16.98;100.00;100496.56;10496578;28;20039;-67
2023/09/20 05:15:01;;;;;;;881.50;819.33;;;;;;;17.05;100.00;100498.03;10478582;28;20325;-67
2023/09/20 05:20:02;;;;;;;855.15;798.63;;;;;;;17.02;100.00;100497.69;10495926;28;20509;-67
2023/09/20 05:25:03;;;;;;;870.10;812.35;;;;;;;17.03;100.00;100504.81;10445966;28;20109;-68
2023/09/20 05:30:05;;;;;;;889.90;824.83;;;;;;;17.01;100.00;100502.34;10478126;28;20040;-68
2023/09/20 05:35:08;;;;;;;847.35;791.70;;;;;;;17.09;100.00;100495.63;10495788;28;20071;-68
2023/09/20 05:40:17;;;;;;;1071.07;970.47;;;;;;;17.02;100.00;100503.16;10493714;28;20036;-67
2023/09/20 05:45:20;;;;;;;859.22;801.72;;;;;;;16.95;100.00;100500.59;10494917;28;20033;-68
2023/09/20 05:50:33;;;;;;;941.22;872.13;;;;;;;16.93;100.00;100506.31;10478197;28;20033;-67
2023/09/20 05:55:37;;;;;;;860.40;803.05;;;;;;;16.95;100.00;100495.97;10496613;28;20044;-68
2023/09/20 06:00:37;;;;;;;838.63;782.90;;;;;;;16.93;100.00;100503.56;10494307;28;20032;-68
2023/09/20 06:05:38;;;;;;;865.67;808.17;;;;;;;17.05;100.00;100500.75;10494155;28;20040;-68
2023/09/20 06:10:38;;;;;;;870.25;812.20;;;;;;;17.10;100.00;100505.47;10500012;28;20044;-68
2023/09/20 06:15:39;;;;;;;870.75;813.22;;;;;;;17.15;100.00;100502.81;10485160;28;20080;-68
2023/09/20 06:20:39;;;;;;;844.00;788.45;;;;;;;17.18;100.00;100497.66;10503116;28;20045;-67
2023/09/20 06:25:47;;;;;;;1023.03;940.20;;;;;;;17.25;100.00;100497.50;10500823;28;20036;-69
2023/09/20 06:30:47;;;;;;;897.72;836.90;;;;;;;17.23;100.00;100493.34;10502599;28;20039;-68
2023/09/20 06:35:49;;;;;;;845.53;789.50;;;;;;;17.22;100.00;100497.16;10502591;28;20384;-68
2023/09/20 06:40:51;;;;;;;905.15;842.70;;;;;;;17.24;100.00;100484.06;10501597;28;20056;-68
2023/09/20 06:45:52;;;;;;;848.92;793.42;;;;;;;17.32;100.00;100487.19;10482815;28;20104;-68
2023/09/20 06:50:52;;;;;;;820.33;766.70;;;;;;;17.39;100.00;100490.59;10467818;28;20028;-68
2023/09/20 06:55:54;;;;;;;884.42;824.65;;;;;;;17.43;100.00;100491.72;10502331;28;20032;-68
2023/09/20 07:00:55;;;;;;;840.75;785.72;;;;;;;17.49;100.00;100494.56;10501067;28;20119;-69
2023/09/20 07:05:56;;;;;;;875.25;816.80;;;;;;;17.54;100.00;100502.81;10500097;28;20048;-68
2023/09/20 07:10:56;;;;;;;903.92;841.90;;;;;;;17.51;100.00;100509.63;10483458;28;20036;-68
2023/09/20 07:15:58;;;;;;;895.67;833.47;;;;;;;17.53;100.00;100504.72;10501003;28;20047;-68
2023/09/20 07:20:58;;;;;;;878.80;819.45;;;;;;;17.55;100.00;100507.19;10498650;28;20217;-69
2023/09/20 07:25:59;;;;;;;907.92;845.58;;;;;;;17.55;100.00;100520.88;10482650;28;20093;-68
2023/09/20 07:31:03;;;;;;;849.08;793.30;;;;;;;17.42;100.00;100528.41;10483174;28;20102;-68
2023/09/20 07:36:05;;;;;;;990.20;910.63;;;;;;;17.38;100.00;100524.50;10500465;28;20039;-70
2023/09/20 07:41:13;;;;;;;922.33;859.42;;;;;;;17.42;100.00;100535.75;10499426;28;20071;-69
2023/09/20 07:46:14;;;;;;;875.08;815.65;;;;;;;17.36;100.00;100543.09;10498647;28;20387;-67
2023/09/20 07:51:19;;;;;;;892.28;832.35;;;;;;;17.36;100.00;100542.28;10481775;28;20064;-68
2023/09/20 07:56:20;;;;;;;856.10;798.58;;;;;;;17.36;100.00;100543.09;10481663;28;20127;-68
2023/09/20 08:01:21;;;;;;;816.95;763.97;;;;;;;17.59;100.00;100542.06;10498165;28;20376;-68
2023/09/20 08:06:28;;;;;;;905.90;842.80;;;;;;;17.64;100.00;100546.75;10498587;28;20072;-68
2023/09/20 08:11:28;;;;;;;903.42;837.63;;;;;;;17.60;100.00;100551.91;10480202;28;20032;-68
2023/09/20 08:16:33;;;;;;;968.33;889.63;;;;;;;17.56;100.00;100547.22;10462736;28;20078;-67
2023/09/20 08:21:34;;;;;;;922.22;856.25;;;;;;;17.54;100.00;100514.59;10497095;28;20029;-68
2023/09/20 09:03:47;;;;;;;844.17;788.78;;;;;;;17.62;100.00;100536.06;10481701;28;20347;-67
2023/09/20 09:08:47;;;;;;;847.83;791.88;;;;;;;17.79;100.00;100530.56;10495102;28;20040;-67
2023/09/20 09:13:48;;;;;;;883.53;820.20;;;;;;;17.90;100.00;100528.81;10479229;28;20060;-68
2023/09/20 09:18:48;;;;;;;1188.53;999.90;;;;;;;18.04;100.00;100530.06;10495857;28;20068;-68
2023/09/20 09:23:49;;;;;;;867.25;810.17;;;;;;;18.13;100.00;100536.75;10496311;28;20025;-68
2023/09/20 09:28:49;;;;;;;948.28;876.63;;;;;;;18.31;100.00;100535.56;10495371;28;20369;-68
2023/09/20 09:33:51;;;;;;;826.80;773.40;;;;;;;18.48;100.00;100540.13;10477818;28;20036;-69
2023/09/20 09:38:51;;;;;;;938.05;863.05;;;;;;;18.47;100.00;100530.22;10495524;28;20028;-68
2023/09/20 09:43:55;;;;;;;873.22;814.80;;;;;;;18.46;100.00;100517.63;10498651;28;20392;-68
2023/09/20 09:48:56;;;;;;;962.40;890.95;;;;;;;18.52;100.00;100511.09;10469267;28;20419;-67
2023/09/20 09:53:56;;;;;;;954.45;879.45;;;;;;;18.63;100.00;100501.88;10468855;28;20082;-68
2023/09/20 09:58:57;;;;;;;790.47;740.42;;;;;;;18.65;100.00;100505.19;10485533;28;20051;-67
2023/09/20 10:03:57;;;;;;;833.35;776.83;;;;;;;18.85;100.00;100487.28;10484932;28;20086;-68
2023/09/20 10:08:58;;;;;;;840.83;785.55;;;;;;;18.95;100.00;100495.56;10501112;28;20028;-68
2023/09/20 10:14:00;;;;;;;1069.32;965.58;;;;;;;18.75;100.00;100477.88;10501281;28;20036;-69
2023/09/20 10:19:02;;;;;;;951.30;881.47;;;;;;;18.66;100.00;100473.09;10485436;28;20460;-68
2023/09/20 10:24:05;;;;;;;892.72;827.28;;;;;;;18.64;100.00;100478.03;10502679;28;20029;-68
2023/09/20 10:29:31;;;;;;;896.33;832.13;;;;;;;18.90;100.00;100470.84;10484726;28;20032;-68
2023/09/20 10:34:36;;;;;;;825.42;771.88;;;;;;;19.23;100.00;100464.19;10484834;28;20059;-68
2023/09/20 10:39:38;;;;;;;917.25;847.67;;;;;;;19.74;100.00;100457.06;10501578;28;20072;-67
2023/09/20 10:44:41;;;;;;;813.38;761.15;;;;;;;20.10;100.00;100459.06;10500347;28;20036;-68
2023/09/20 10:49:47;;;;;;;996.17;918.75;;;;;;;20.30;100.00;100458.31;10501293;28;20368;-67
2023/09/20 10:54:49;;;;;;;959.00;878.47;;;;;;;20.18;100.00;100451.13;10501117;28;20032;-67
2023/09/20 10:59:49;;;;;;;1029.70;938.10;;;;;;;20.02;100.00;100457.69;10500951;28;20045;-67
2023/09/20 11:04:50;;;;;;;867.80;810.05;;;;;;;19.84;100.00;100455.44;10466085;28;20123;-68
2023/09/20 11:09:51;;;;;;;958.42;870.55;;;;;;;19.72;100.00;100448.28;10500802;28;20083;-67
2023/09/20 11:14:54;;;;;;;853.90;794.85;;;;;;;19.62;100.00;100472.94;10499657;28;20028;-68
2023/09/20 11:19:57;;;;;;;924.65;850.85;;;;;;;20.39;100.00;100456.66;10482263;28;20056;-68
2023/09/20 11:24:58;;;;;;;1016.53;927.75;;;;;;;21.40;100.00;100449.44;10498797;28;20063;-68
2023/09/20 11:30:04;;;;;;;839.75;783.88;;;;;;;22.05;100.00;100453.00;10500642;28;20342;-68
2023/09/20 11:35:06;;;;;;;871.92;807.30;;;;;;;22.18;100.00;100442.47;10465054;28;20047;-68
2023/09/20 11:40:07;;;;;;;794.58;744.28;;;;;;;21.56;100.00;100448.25;10499174;28;20051;-68
2023/09/20 11:45:08;;;;;;;902.92;836.10;;;;;;;21.74;100.00;100429.47;10498864;28;20029;-68
2023/09/20 11:50:13;;;;;;;958.65;883.67;;;;;;;22.12;100.00;100429.81;10498023;28;20029;-68
2023/09/20 11:55:16;;;;;;;822.13;768.53;;;;;;;21.73;100.00;100420.38;10481043;28;20032;-68
2023/09/20 12:00:18;;;;;;;917.47;845.75;;;;;;;21.31;100.00;100410.63;10498123;28;20068;-68
2023/09/20 12:05:19;;;;;;;812.22;759.42;;;;;;;21.13;100.00;100405.72;10479679;28;20180;-68
2023/09/20 12:10:19;;;;;;;805.63;753.35;;;;;;;21.24;100.00;100401.00;10497197;28;20036;-67
2023/09/20 12:15:23;;;;;;;876.67;816.55;;;;;;;21.52;100.00;100397.59;10496828;28;20029;-68
2023/09/20 12:20:26;;;;;;;826.33;772.15;;;;;;;21.51;100.00;100373.91;10498788;28;20097;-68
2023/09/20 12:25:27;;;;;;;990.33;903.40;;;;;;;21.83;100.00;100378.97;10496822;28;20033;-68
2023/09/20 12:30:28;;;;;;;1003.47;914.40;;;;;;;22.54;100.00;100373.22;10498862;28;20044;-69
2023/09/20 12:35:30;;;;;;;946.83;871.75;;;;;;;23.00;98.80;100337.69;10498224;28;20032;-68
2023/09/20 12:40:30;;;;;;;832.85;776.30;;;;;;;23.64;92.01;100355.66;10497673;28;20032;-67
2023/09/20 12:45:32;;;;;;;833.83;779.90;;;;;;;23.92;100.00;100346.72;10497067;28;20094;-68
2023/09/20 12:50:36;;;;;;;812.83;760.55;;;;;;;23.81;100.00;100326.69;10496793;28;20116;-68
2023/09/20 12:55:38;;;;;;;977.53;896.15;;;;;;;23.01;92.71;100316.44;10479486;28;20068;-67
2023/09/20 13:00:40;;;;;;;793.83;743.30;;;;;;;22.92;97.99;100314.28;10496693;28;20043;-68
2023/09/20 13:05:40;;;;;;;861.88;805.10;;;;;;;22.81;94.90;100307.22;10478658;28;20032;-67
2023/09/20 13:10:41;;;;;;;757.70;710.65;;;;;;;22.80;97.69;100300.06;10478264;28;20105;-68
2023/09/20 13:15:42;;;;;;;777.75;728.35;;;;;;;23.14;97.82;100293.63;10479554;28;20036;-67
2023/09/20 13:20:42;;;;;;;853.75;785.38;;;;;;;24.51;89.68;100304.50;10494867;28;20461;-68
2023/09/20 13:25:44;;;;;;;768.97;719.55;;;;;;;23.93;89.44;100290.25;10496207;28;20029;-67
2023/09/20 13:30:45;;;;;;;633.20;595.95;;;;;;;23.68;94.86;100272.97;10497007;28;20102;-67
2023/09/20 13:35:45;;;;;;;641.70;601.00;;;;;;;24.42;89.16;100272.31;10496838;28;20086;-68
2023/09/20 13:40:47;;;;;;;674.63;635.42;;;;;;;24.40;92.88;100278.09;10497445;28;20445;-68
2023/09/20 13:45:48;;;;;;;634.75;599.80;;;;;;;23.59;92.04;100285.81;10497581;28;20486;-68
2023/09/20 13:50:48;;;;;;;660.20;622.38;;;;;;;22.69;98.10;100274.53;10496558;28;20068;-67
2023/09/20 13:55:51;;;;;;;637.13;601.85;;;;;;;22.46;100.00;100278.09;10496436;28;20067;-67
2023/09/20 14:00:52;;;;;;;856.97;792.63;;;;;;;22.11;98.70;100276.47;10477079;28;20109;-67
2023/09/20 14:05:52;;;;;;;755.65;708.85;;;;;;;21.89;100.00;100287.94;10495534;28;20529;-67
2023/09/20 14:10:53;;;;;;;848.15;792.58;;;;;;;21.85;100.00;100275.88;10476647;28;20066;-67
2023/09/20 14:15:54;;;;;;;772.42;721.63;;;;;;;21.74;100.00;100278.72;10493133;28;20090;-67
2023/09/20 14:20:54;;;;;;;896.08;826.60;;;;;;;21.72;100.00;100277.34;10492626;28;20045;-67
2023/09/20 14:25:55;;;;;;;774.00;723.10;;;;;;;22.20;100.00;100274.75;10494440;28;20475;-69
2023/09/20 14:30:55;;;;;;;1284.63;995.92;;;;;;;22.60;96.85;100261.69;10480420;28;20032;-68
2023/09/20 14:35:59;;;;;;;830.20;774.78;;;;;;;22.01;100.00;100267.16;10499996;28;20036;-69
2023/09/20 14:41:00;;;;;;;852.92;795.95;;;;;;;22.49;99.36;100266.47;10483687;28;20057;-68
2023/09/20 14:46:06;;;;;;;788.33;737.45;;;;;;;22.70;100.00;100251.31;10500140;28;20105;-68
2023/09/20 14:51:08;;;;;;;1489.03;999.72;;;;;;;22.79;94.07;100254.28;10483289;28;20056;-68
2023/09/20 14:56:09;;;;;;;835.95;775.72;;;;;;;22.63;100.00;100244.53;10484455;28;20036;-68
2023/09/20 15:01:16;;;;;;;816.50;762.88;;;;;;;22.87;96.71;100256.34;10483462;28;20035;-67
2023/09/20 15:06:21;;;;;;;1181.65;999.90;;;;;;;22.70;96.56;100248.56;10501122;28;20068;-67
2023/09/20 15:11:22;;;;;;;759.70;711.22;;;;;;;22.26;99.48;100248.78;10502349;28;20063;-68
2023/09/20 15:16:22;;;;;;;749.65;703.47;;;;;;;22.15;100.00;100248.03;10501613;28;20111;-68
2023/09/20 15:21:23;;;;;;;837.88;781.60;;;;;;;21.92;98.32;100241.38;10501024;28;20028;-67
2023/09/20 15:26:24;;;;;;;818.85;764.20;;;;;;;21.78;100.00;100230.16;10500447;28;20108;-68
2023/09/20 15:31:25;;;;;;;813.53;759.33;;;;;;;21.47;100.00;100228.75;10499975;28;20056;-67
2023/09/20 15:36:26;;;;;;;1177.38;999.90;;;;;;;21.38;100.00;100223.06;10499575;28;20440;-68
2023/09/20 15:41:26;;;;;;;818.67;764.03;;;;;;;21.35;100.00;100221.69;10498733;28;20147;-67
2023/09/20 15:46:27;;;;;;;858.20;798.67;;;;;;;21.38;100.00;100208.44;10499207;28;20559;-67
2023/09/20 15:51:27;;;;;;;975.33;888.47;;;;;;;21.38;100.00;100211.19;10499133;28;20083;-67
2023/09/20 15:56:28;;;;;;;768.50;719.17;;;;;;;21.33;100.00;100212.03;10498119;28;20040;-67
2023/09/20 16:01:30;;;;;;;917.08;845.88;;;;;;;21.44;100.00;100215.56;10498188;28;20129;-67
2023/09/20 16:06:30;;;;;;;782.13;732.67;;;;;;;21.45;100.00;100206.19;10498931;28;20040;-68
2023/09/20 16:11:31;;;;;;;780.08;730.85;;;;;;;21.69;100.00;100189.72;10496961;28;20056;-68
2023/09/20 16:16:31;;;;;;;819.35;757.15;;;;;;;21.49;100.00;100194.31;10498060;28;20053;-67
2023/09/20 16:21:32;;;;;;;780.80;725.92;;;;;;;21.30;100.00;100172.09;10497082;28;20121;-67
2023/09/20 16:26:32;;;;;;;760.97;713.13;;;;;;;21.35;100.00;100166.59;10495805;28;20029;-67
2023/09/20 16:31:33;;;;;;;850.17;790.40;;;;;;;21.03;100.00;100158.81;10497695;28;20039;-68
2023/09/20 16:36:34;;;;;;;795.63;744.50;;;;;;;20.91;100.00;100174.84;10497140;28;20040;-67
2023/09/20 16:41:39;;;;;;;806.85;752.28;;;;;;;20.84;100.00;100164.16;10496765;28;20481;-68
2023/09/20 16:46:40;;;;;;;808.63;756.00;;;;;;;20.64;100.00;100156.00;10497725;28;20413;-68
2023/09/20 16:51:40;;;;;;;785.05;735.10;;;;;;;20.63;100.00;100155.16;10496256;28;20036;-67
2023/09/20 16:56:41;;;;;;;794.13;743.20;;;;;;;20.58;100.00;100155.22;10477852;28;20036;-67
2023/09/20 17:01:41;;;;;;;795.72;744.13;;;;;;;20.56;100.00;100160.16;10477371;28;20121;-67
2023/09/20 17:06:42;;;;;;;797.88;747.25;;;;;;;20.54;100.00;100142.28;10494849;28;20115;-67
2023/09/20 17:11:42;;;;;;;788.58;737.75;;;;;;;20.52;100.00;100142.59;10496617;28;20478;-68
2023/09/20 17:16:43;;;;;;;847.13;790.80;;;;;;;20.33;100.00;100138.78;10495682;28;20445;-67
2023/09/20 17:21:45;;;;;;;865.25;804.95;;;;;;;20.44;100.00;100135.69;10494187;28;20040;-67
2023/09/20 17:26:45;;;;;;;951.88;880.88;;;;;;;20.39;100.00;100130.25;10494353;28;20035;-67
2023/09/20 17:31:46;;;;;;;785.15;735.63;;;;;;;20.41;100.00;100118.94;10495157;28;20127;-67
2023/09/20 17:36:46;;;;;;;790.08;740.00;;;;;;;20.37;100.00;100098.63;10495808;28;20040;-66
2023/09/20 17:41:47;;;;;;;808.42;756.97;;;;;;;20.36;100.00;100096.97;10493610;28;20056;-67
2023/09/20 17:46:47;;;;;;;850.40;792.88;;;;;;;20.26;100.00;100094.25;10493257;28;20033;-68
2023/09/20 17:51:48;;;;;;;848.30;790.83;;;;;;;20.00;100.00;100086.09;10494928;28;20044;-68
2023/09/20 17:56:50;;;;;;;907.35;841.70;;;;;;;19.85;100.00;100091.66;10494927;28;20029;-68
2023/09/20 18:01:50;;;;;;;843.83;788.85;;;;;;;19.80;100.00;100099.91;10477692;28;20115;-67
2023/09/20 18:06:50;;;;;;;831.75;774.65;;;;;;;19.80;100.00;100106.22;10500778;28;20055;-68
2023/09/20 18:11:51;;;;;;;813.13;760.58;;;;;;;19.81;100.00;100109.78;10485138;28;20429;-67
2023/09/20 18:16:51;;;;;;;793.50;742.78;;;;;;;19.97;100.00;100114.16;10485304;28;20466;-67
2023/09/20 18:21:53;;;;;;;765.45;718.58;;;;;;;20.06;100.00;100125.41;10502781;28;20047;-67
2023/09/20 18:26:57;;;;;;;887.17;824.95;;;;;;;20.15;100.00;100115.47;10484507;28;20401;-68
2023/09/20 18:31:57;;;;;;;857.67;798.97;;;;;;;20.17;100.00;100114.09;10501152;28;20403;-67
2023/09/20 18:36:57;;;;;;;768.22;720.30;;;;;;;20.25;100.00;100129.19;10485316;28;20040;-68
2023/09/20 18:42:00;;;;;;;745.85;700.40;;;;;;;20.26;100.00;100124.50;10504141;28;20116;-69
2023/09/20 18:47:01;;;;;;;790.92;739.05;;;;;;;20.19;100.00;100117.38;10504897;28;20035;-67
2023/09/20 18:52:01;;;;;;;792.83;742.30;;;;;;;20.05;100.00;100127.31;10504021;28;20495;-67
2023/09/20 18:57:02;;;;;;;792.90;742.70;;;;;;;19.82;100.00;100114.22;10504306;28;20040;-69
2023/09/20 19:02:03;;;;;;;805.25;753.33;;;;;;;19.63;100.00;100123.00;10483486;28;20035;-66
2023/09/20 19:07:03;;;;;;;818.78;765.20;;;;;;;19.60;100.00;100114.50;10501196;28;20148;-67
2023/09/20 19:12:06;;;;;;;789.85;739.47;;;;;;;19.50;100.00;100099.66;10502035;28;20032;-68
2023/09/20 19:17:06;;;;;;;815.53;762.42;;;;;;;19.40;100.00;100096.94;10500022;28;20110;-65
2023/09/20 19:22:08;;;;;;;815.95;762.50;;;;;;;19.33;100.00;100093.63;10500293;28;20441;-67
2023/09/20 19:27:10;;;;;;;845.72;789.00;;;;;;;19.17;100.00;100094.72;10501757;28;20040;-69
2023/09/20 19:32:10;;;;;;;818.60;765.03;;;;;;;19.08;100.00;100072.50;10482422;28;20400;-67
2023/09/20 19:37:12;;;;;;;787.15;737.47;;;;;;;18.98;100.00;100065.06;10482496;28;20047;-69
2023/09/20 19:42:13;;;;;;;829.88;775.83;;;;;;;18.84;100.00;100052.19;10499174;28;20449;-68
2023/09/20 19:47:14;;;;;;;826.28;771.97;;;;;;;18.80;100.00;100058.22;10499780;28;20043;-68
2023/09/20 19:52:15;;;;;;;790.90;740.58;;;;;;;18.79;100.00;100053.00;10481037;28;20463;-66
2023/09/20 19:57:16;;;;;;;821.70;767.60;;;;;;;18.71;100.00;100042.53;10499247;28;20071;-67
2023/09/20 20:02:16;;;;;;;818.97;765.30;;;;;;;18.76;100.00;100037.94;10497098;28;20475;-67
2023/09/20 20:07:17;;;;;;;836.28;781.58;;;;;;;18.71;100.00;100026.91;10498256;28;20028;-66
2023/09/20 20:12:17;;;;;;;828.63;774.28;;;;;;;18.74;100.00;100017.34;10497547;28;20376;-65
2023/09/20 20:17:19;;;;;;;803.40;751.53;;;;;;;18.74;100.00;100015.44;10479748;28;20056;-67
2023/09/20 20:22:20;;;;;;;797.05;746.53;;;;;;;18.69;100.00;99993.44;10496572;28;20468;-67
2023/09/20 20:27:20;;;;;;;800.45;748.30;;;;;;;18.76;100.00;99994.03;10496599;28;20041;-66
2023/09/20 20:32:21;;;;;;;810.83;758.13;;;;;;;18.84;100.00;99983.59;10495932;28;20036;-67
2023/09/20 20:37:21;;;;;;;835.00;779.55;;;;;;;18.93;100.00;99969.06;10463120;28;20044;-67
2023/09/20 20:42:22;;;;;;;834.92;779.63;;;;;;;19.01;100.00;99964.94;10478366;28;20029;-67
2023/09/20 20:47:22;;;;;;;816.08;762.70;;;;;;;18.99;100.00;99953.44;10496129;28;20028;-67
2023/09/20 20:52:23;;;;;;;781.08;731.17;;;;;;;19.01;100.00;99941.06;10479410;28;20396;-68
2023/09/20 20:57:24;;;;;;;808.22;753.50;;;;;;;19.00;100.00;99922.13;10478114;28;20037;-67
2023/09/20 21:02:28;;;;;;;819.53;765.75;;;;;;;19.03;100.00;99919.66;10461730;28;20506;-67
2023/09/20 21:07:28;;;;;;;792.25;738.95;;;;;;;18.99;100.00;99898.56;10495861;28;20068;-66
2023/09/20 21:12:30;;;;;;;805.13;747.83;;;;;;;19.01;100.00;99896.34;10494736;28;20083;-68
2023/09/20 21:17:30;;;;;;;846.63;789.38;;;;;;;19.04;100.00;99893.84;10477510;28;20574;-67
2023/09/20 21:22:30;;;;;;;804.00;747.40;;;;;;;19.16;100.00;99881.75;10494515;28;20040;-67
2023/09/20 21:27:31;;;;;;;781.13;731.85;;;;;;;19.16;100.00;99877.09;10477169;28;20032;-67
2023/09/20 21:32:34;;;;;;;798.53;745.65;;;;;;;19.16;100.00;99874.34;10478146;28;20067;-67
2023/09/20 21:37:35;;;;;;;762.85;714.85;;;;;;;19.06;100.00;99877.13;10495241;28;20069;-67
2023/09/20 21:42:36;;;;;;;729.88;685.78;;;;;;;19.04;100.00;99871.91;10476760;28;20128;-66
2023/09/20 21:47:36;;;;;;;829.10;771.95;;;;;;;19.01;100.00;99863.41;10477905;28;20060;-66
2023/09/20 21:52:37;;;;;;;899.92;827.78;;;;;;;19.04;100.00;99871.91;10496079;28;20056;-66
2023/09/20 21:57:38;;;;;;;788.35;737.15;;;;;;;19.08;100.00;99861.22;10495465;28;20029;-67
2023/09/20 22:02:40;;;;;;;735.58;691.63;;;;;;;19.11;100.00;99851.59;10494680;28;20032;-67
2023/09/20 22:07:47;;;;;;;749.88;704.35;;;;;;;19.12;100.00;99840.34;10476558;28;20414;-67
2023/09/20 22:12:47;;;;;;;;;;;;;;;19.12;100.00;99834.84;10495322;28;20067;-67
2023/09/20 22:17:47;;;;;;;753.10;706.92;;;;;;;19.17;100.00;99832.06;10477030;28;20382;-67
2023/09/20 22:22:48;;;;;;;748.85;703.10;;;;;;;19.23;100.00;99817.22;10494150;28;20123;-67
2023/09/20 22:27:50;;;;;;;719.42;676.92;;;;;;;19.23;100.00;99814.47;10494675;28;20119;-67